x

Long Island - 30 Nm South Of Islip, Ny (44025) Wave Buoy

5:50am - Fri 30th Sep 2016 All times are EDT. -4 hours from GMT.

  • Sig Wave height 12.1ft
  • Swell Direction
  • Peak Period 8s
  • Average Period 6s
  • Wind
    34mph, 43mph gusts
  • Sea Temp 67°f
  • Air Temp 64°f
  • Sea Pressure 1022.6mb
  • Long Island - 30 Nm South Of Islip, Ny
  • Long Island - 30 Nm South Of Islip, Ny

More Historic Weather Station data

Upgrade to MSW Pro to gain access to the past 30 days of data for over 8000 Wavebouys and Weather Stations around the globe.

Join Pro

Comparision Forecast

View Surf forecast
   
Fri 09/30 5:50am 12ft 8s 6s 34 43 mph 1022.6mb 67f 64f
4:50am 13ft 9s 7s 36 43 mph 1022.5mb 66f 64f
3:50am 12ft 9s 7s 36 43 mph 1022.9mb 66f 63f
2:50am 12.5ft 9s 7s 36 40 mph 1023.5mb 67f 64f
1:50am 11ft 8s 6s 34 43 mph 1024.2mb 67f 64f
12:50am 12ft 9s 7s 31 38 mph 1024.9mb 67f 64f
Thu 09/29 11:50pm 13.5ft 9s 7s 31 43 mph 1025.4mb 67f 63f
10:50pm 13ft 8s 7s 34 40 mph 1025.5mb 67f 63f
9:50pm 12ft 9s 6s 34 40 mph 1025.6mb 67f 63f
8:50pm 13.5ft 8s 7s 31 38 mph 1025.7mb 67f 63f
7:50pm 12.5ft 8s 7s 31 38 mph 1025.7mb 67f 64f
6:50pm 12.5ft 8s 7s 31 40 mph 1025.5mb 66f 63f
5:50pm 12.5ft 8s 6s 31 38 mph 1025.4mb 67f 63f
4:50pm 11ft 8s 6s 34 40 mph 1025.2mb 67f 63f
3:50pm 10.5ft 8s 6s 34 38 mph 1025.5mb 68f 63f
2:50pm 10.5ft 8s 6s 31 38 mph 1025.9mb 68f 63f
1:50pm 10ft 8s 6s 31 38 mph 1026.4mb 68f 63f
12:50pm 11ft 8s 6s 34 38 mph 1026.4mb 68f 62f
11:50am 11ft 8s 6s 29 36 mph 1026.6mb 69f 62f
10:50am 11ft 8s 6s 31 38 mph 1025.9mb 69f 63f
9:50am 10ft 8s 6s 31 38 mph 1025.3mb 69f 63f
8:50am 10ft 8s 6s 31 38 mph 1024.7mb 69f 64f
7:50am 10ft 8s 6s 31 38 mph 1024.1mb 69f 64f
6:50am 9ft 7s 6s 31 36 mph 1023.7mb 69f 64f
5:50am 11ft 7s 6s 31 38 mph 1023.5mb 69f 64f
4:50am 10ft 8s 6s 29 36 mph 1023.3mb 69f 64f
3:50am 10ft 7s 6s 29 34 mph 1022.7mb 69f 64f
2:50am 9.5ft 8s 6s 31 36 mph 1022mb 69f 65f
1:50am 9ft 8s 6s 29 36 mph 1022.3mb 69f 65f
12:50am 9.5ft 8s 6s 29 36 mph 1022.1mb 69f 64f
Wed 09/28 11:50pm 9.5ft 8s 6s 29 36 mph 1022.1mb 69f 64f
10:50pm 9ft 8s 6s 29 36 mph 1021.8mb 69f 64f
9:50pm 9.5ft 8s 6s 27 34 mph 1021.8mb 69f 63f
8:50pm 9ft 8s 6s 29 34 mph 1021.3mb 69f 63f
7:50pm 8.5ft 8s 6s 31 36 mph 1020.5mb 69f 63f
6:50pm 9ft 8s 6s 29 36 mph 1019.7mb 69f 63f
5:50pm 8.5ft 7s 6s 31 36 mph 1018.8mb 69f 64f
4:50pm 8ft 8s 6s 31 36 mph 1018.7mb 69f 65f
3:50pm 8.5ft 7s 5s 29 34 mph 1018.8mb 69f 65f
2:50pm 7ft 6s 5s 27 31 mph 1018.9mb 69f 65f
1:50pm 7ft 6s 5s 27 34 mph 1018.3mb 69f 65f
12:50pm 6ft 6s 5s 27 31 mph 1018.4mb 69f 65f
11:50am 6ft 5s 5s 27 31 mph 1017.9mb 69f 67f
10:50am 5ft 5s 4s 27 31 mph 1017.6mb 70f 67f
9:50am 4.5ft 4s 4s 25 31 mph 1017.3mb 70f 68f
8:50am 4.5ft 11s 4s 22 27 mph 1017mb 70f 68f
7:50am 3.5ft 6s 4s 20 25 mph 1016.5mb 69f 68f
6:50am 3.5ft 11s 5s 18 22 mph 1016.1mb 69f 68f
5:50am 3.5ft 11s 5s 16 18 mph 1015.6mb 69f 69f
4:50am 3.5ft 7s 5s 13
mph
1015.5mb 69f 68f
3:50am 3.5ft 7s 6s 11 13 mph 1015.6mb 69f 69f
2:50am 3.5ft 7s 6s 9 11 mph 1015.3mb 69f 69f
1:50am 3.5ft 7s 6s 4 7 mph 1015.3mb 69f 69f
12:50am 3.5ft 7s 6s 2
mph
1015.1mb 69f 69f
Tue 09/27 11:50pm 3.5ft 7s 6s  -  2 mph 1014.7mb 69f 69f
10:50pm 3.5ft 7s 6s 4 7 mph 1014.5mb 70f 69f
9:50pm 3.5ft 7s 6s 9
mph
1014.2mb 70f 69f
8:50pm 3.5ft 7s 5s 11 13 mph 1013.7mb 70f 69f
7:50pm 4ft 7s 6s 7 9 mph 1013.2mb 70f 69f
6:50pm 4ft 7s 6s 9
mph
1013mb 70f 68f
5:50pm 4.5ft 8s 6s 7
mph
1012.4mb 70f 68f
4:50pm 4.5ft 7s 6s 9 11 mph 1012.2mb 70f 68f
3:50pm 4.5ft 6s 6s 7 9 mph 1012.2mb 70f 68f
2:50pm 4.5ft 6s 6s 7 9 mph 1012.8mb 70f 68f
1:50pm 4.5ft 7s 6s 7 9 mph 1012.4mb 70f 68f
12:50pm 4.5ft 6s 5s 9
mph
1013.2mb 70f 68f
11:50am 4ft 6s 5s 11 13 mph 1013.3mb 70f 67f
10:50am 3.5ft 6s 5s 9 13 mph 1013.8mb 70f 68f
9:50am 4.5ft 6s 5s 11 13 mph 1013.4mb 70f 68f
8:50am 5ft 6s 5s 16 20 mph 1012.9mb 70f 68f
7:50am 5.5ft 6s 5s 16 18 mph 1012.6mb 69f 70f
6:50am 6ft 6s 5s 20 22 mph 1012.1mb 69f 71f
5:50am 5.5ft 6s 5s 22 27 mph 1011.9mb 69f 69f
4:50am 4.5ft 5s 4s 25 34 mph 1012.1mb 69f 69f
3:50am 4ft 5s 4s 22 29 mph 1012.3mb 69f 69f
2:50am 3.5ft 5s 4s 18 22 mph 1013.3mb 69f 70f
1:50am 4ft 5s 4s 13 16 mph 1014.3mb 69f 70f
12:50am 4.5ft 5s 4s 16 18 mph 1015.1mb 69f 70f
Mon 09/26 11:50pm 4.5ft 5s 4s 18 20 mph 1016.1mb 69f 69f
10:50pm 3.5ft 4s 4s 20 25 mph 1017mb 69f 69f
9:50pm 3.5ft 4s 4s 20 25 mph 1017.4mb 69f 68f
8:50pm 3ft 4s 4s 20 25 mph 1017.7mb 69f 67f
7:50pm 2.5ft 9s 4s 18 20 mph 1018.2mb 69f 67f
6:50pm 2.5ft 10s 4s 16 20 mph 1018.3mb 69f 67f
5:50pm 2.5ft 10s 4s 13 16 mph 1018.7mb 69f 66f
4:50pm 2ft 10s 4s 13 16 mph 1018.7mb 69f 66f
3:50pm 2ft 10s 4s 11 13 mph 1019.8mb 69f 66f
2:50pm 2ft 10s 4s 13 16 mph 1020.2mb 69f 66f
1:50pm 2ft 10s 4s 11 16 mph 1020.6mb 69f 66f
12:50pm 1.6ft 10s 4s 13 16 mph 1021.4mb 69f 65f
11:50am 1.6ft 10s 4s 11 13 mph 1022mb 69f 65f
10:50am 1.6ft 10s 4s 11 13 mph 1022.3mb 69f 65f